Time;durP1;ratioP1;P1;durP2;ratioP2;P2;SDS_P1;SDS_P2;PMS_P1;PMS_P2;Temp;Humidity;BMP_temperature;BMP_pressure;BME280_temperature;BME280_humidity;BME280_pressure;Samples;Min_cycle;Max_cycle;Signal;HPM_P1;HPM_P2
2023/07/21 00:00:58;;;;;;;;;2.00;2.00;;;;;;;;5080673;27;45346;-78
2023/07/21 00:03:23;;;;;;;;;6.00;3.67;;;;;;;;5090213;27;45754;-80
2023/07/21 00:05:49;;;;;;;;;4.00;4.00;;;;;;;;5089880;27;45922;-80
2023/07/21 00:08:14;;;;;;;;;4.00;4.00;;;;;;;;5081694;27;45520;-79
2023/07/21 00:10:40;;;;;;;;;3.67;3.33;;;;;;;;5081528;27;45625;-80
2023/07/21 00:13:05;;;;;;;;;4.00;3.00;;;;;;;;5096521;27;46276;-79
2023/07/21 00:15:32;;;;;;;;;5.00;4.00;;;;;;;;5089689;27;45379;-80
2023/07/21 00:17:57;;;;;;;;;4.00;4.00;;;;;;;;5088286;27;45525;-78
2023/07/21 00:20:24;;;;;;;;;3.33;3.33;;;;;;;;5119695;27;45467;-80
2023/07/21 00:22:50;;;;;;;;;2.00;2.00;;;;;;;;5097647;27;45474;-78
2023/07/21 00:25:15;;;;;;;;;3.00;3.00;;;;;;;;5085450;27;45386;-80
2023/07/21 00:27:41;;;;;;;;;3.00;2.00;;;;;;;;5083698;27;45448;-79
2023/07/21 00:30:07;;;;;;;;;3.00;3.00;;;;;;;;5088194;27;45498;-80
2023/07/21 00:32:33;;;;;;;;;4.67;3.00;;;;;;;;5084441;27;45907;-76
2023/07/21 00:34:58;;;;;;;;;2.00;1.00;;;;;;;;5086943;27;45404;-79
2023/07/21 00:37:24;;;;;;;;;1.00;1.00;;;;;;;;5081262;27;45525;-78
2023/07/21 00:39:49;;;;;;;;;1.00;1.00;;;;;;;;5091066;27;45544;-80
2023/07/21 00:42:14;;;;;;;;;1.00;1.00;;;;;;;;5083055;27;45522;-79
2023/07/21 00:44:40;;;;;;;;;1.00;1.00;;;;;;;;5080685;27;45518;-80
2023/07/21 00:47:05;;;;;;;;;1.33;1.00;;;;;;;;5082772;27;45449;-79
2023/07/21 00:49:32;;;;;;;;;0.00;0.00;;;;;;;;5091470;27;46076;-80
2023/07/21 00:51:58;;;;;;;;;0.67;0.67;;;;;;;;5086695;27;45532;-80
2023/07/21 00:54:23;;;;;;;;;2.00;1.00;;;;;;;;5089372;27;45476;-80
2023/07/21 00:56:48;;;;;;;;;1.00;1.00;;;;;;;;5092552;27;45488;-80
2023/07/21 00:59:14;;;;;;;;;1.00;1.00;;;;;;;;5088474;27;46175;-79
2023/07/21 01:01:39;;;;;;;;;1.00;0.00;;;;;;;;5083651;27;45529;-80
2023/07/21 01:04:05;;;;;;;;;1.00;1.00;;;;;;;;5083164;27;45519;-77
2023/07/21 01:06:31;;;;;;;;;1.33;1.33;;;;;;;;5087943;27;45493;-80
2023/07/21 01:08:58;;;;;;;;;2.00;1.00;;;;;;;;5082269;27;46078;-80
2023/07/21 01:11:24;;;;;;;;;2.00;1.00;;;;;;;;5083324;27;45430;-80
2023/07/21 01:13:50;;;;;;;;;1.00;1.00;;;;;;;;5093924;27;45507;-80
2023/07/21 01:16:16;;;;;;;;;1.00;1.00;;;;;;;;5089651;27;45675;-80
2023/07/21 01:18:43;;;;;;;;;1.33;1.00;;;;;;;;5086915;27;45392;-80
2023/07/21 01:21:12;;;;;;;;;1.67;1.00;;;;;;;;5083751;27;45465;-79
2023/07/21 01:23:41;;;;;;;;;1.67;1.00;;;;;;;;5090782;27;45377;-78
2023/07/21 01:26:09;;;;;;;;;1.00;1.00;;;;;;;;5087045;27;45625;-80
2023/07/21 01:28:35;;;;;;;;;1.33;1.33;;;;;;;;5088442;27;45436;-79
2023/07/21 01:31:01;;;;;;;;;2.00;2.00;;;;;;;;5085016;27;45562;-79
2023/07/21 01:33:27;;;;;;;;;1.67;1.67;;;;;;;;5087139;27;45524;-79
2023/07/21 01:35:53;;;;;;;;;0.67;0.67;;;;;;;;5082746;27;45515;-79
2023/07/21 01:38:19;;;;;;;;;1.00;1.00;;;;;;;;5082779;27;45428;-78
2023/07/21 01:40:46;;;;;;;;;1.33;1.00;;;;;;;;5090338;27;45541;-78
2023/07/21 01:43:12;;;;;;;;;1.33;0.67;;;;;;;;5092307;27;45483;-80
2023/07/21 01:45:38;;;;;;;;;2.00;0.00;;;;;;;;5087964;27;45782;-76
2023/07/21 01:48:04;;;;;;;;;1.00;1.00;;;;;;;;5089752;27;45599;-79
2023/07/21 01:50:29;;;;;;;;;1.00;0.33;;;;;;;;5087643;27;45510;-79
2023/07/21 01:52:56;;;;;;;;;0.00;0.00;;;;;;;;5083373;27;45297;-80
2023/07/21 01:55:32;;;;;;;;;0.00;0.00;;;;;;;;5091903;27;45416;-79
2023/07/21 01:57:59;;;;;;;;;0.33;0.33;;;;;;;;5089076;27;46590;-79
2023/07/21 02:00:29;;;;;;;;;1.33;0.00;;;;;;;;5087204;27;45519;-79
2023/07/21 02:02:55;;;;;;;;;1.00;1.00;;;;;;;;5087953;27;45353;-79
2023/07/21 02:05:22;;;;;;;;;1.00;1.00;;;;;;;;5089766;27;45634;-80
2023/07/21 02:07:47;;;;;;;;;1.00;1.00;;;;;;;;5086123;27;45474;-80
2023/07/21 02:10:13;;;;;;;;;0.00;0.00;;;;;;;;5091700;27;46175;-79
2023/07/21 02:12:38;;;;;;;;;1.00;1.00;;;;;;;;5087211;27;45729;-78
2023/07/21 02:15:05;;;;;;;;;1.00;0.00;;;;;;;;5087199;27;45509;-80
2023/07/21 02:17:31;;;;;;;;;1.00;1.00;;;;;;;;5082481;27;45548;-79
2023/07/21 02:19:56;;;;;;;;;1.67;0.00;;;;;;;;5081181;27;45458;-79
2023/07/21 02:22:22;;;;;;;;;0.00;0.00;;;;;;;;5085601;27;45351;-77
2023/07/21 02:24:47;;;;;;;;;0.00;0.00;;;;;;;;5088066;27;45428;-79
2023/07/21 02:27:13;;;;;;;;;0.00;0.00;;;;;;;;5091240;27;46062;-79
2023/07/21 02:29:40;;;;;;;;;0.00;0.00;;;;;;;;5092392;27;45501;-78
2023/07/21 02:32:06;;;;;;;;;1.00;0.00;;;;;;;;5089433;27;45431;-80
2023/07/21 02:34:32;;;;;;;;;1.00;1.00;;;;;;;;5087336;27;45971;-79
2023/07/21 02:36:57;;;;;;;;;0.00;0.00;;;;;;;;5081800;27;46294;-79
2023/07/21 02:39:23;;;;;;;;;1.33;1.00;;;;;;;;5083234;27;45399;-80
2023/07/21 02:41:48;;;;;;;;;0.67;0.67;;;;;;;;5089149;27;45406;-80
2023/07/21 02:44:15;;;;;;;;;1.00;1.00;;;;;;;;5092749;27;45253;-80
2023/07/21 02:46:41;;;;;;;;;1.00;1.00;;;;;;;;5090607;27;46350;-80
2023/07/21 02:49:07;;;;;;;;;1.00;1.00;;;;;;;;5086968;27;45397;-79
2023/07/21 02:51:33;;;;;;;;;1.00;1.00;;;;;;;;5084386;27;45427;-78
2023/07/21 02:53:58;;;;;;;;;1.00;0.00;;;;;;;;5088422;27;45488;-79
2023/07/21 02:56:24;;;;;;;;;1.00;1.00;;;;;;;;5083724;27;46876;-78
2023/07/21 02:58:50;;;;;;;;;0.67;0.67;;;;;;;;5093419;27;45451;-79
2023/07/21 03:01:17;;;;;;;;;0.00;0.00;;;;;;;;5125673;27;45573;-78
2023/07/21 03:03:44;;;;;;;;;0.33;0.33;;;;;;;;5087796;27;45337;-78
2023/07/21 03:06:09;;;;;;;;;0.33;0.33;;;;;;;;5092604;27;46020;-79
2023/07/21 03:08:35;;;;;;;;;0.00;0.00;;;;;;;;5092574;27;45442;-78
2023/07/21 03:11:00;;;;;;;;;0.00;0.00;;;;;;;;5085086;27;45518;-79
2023/07/21 03:13:26;;;;;;;;;1.00;1.00;;;;;;;;5096966;27;45423;-79
2023/07/21 03:15:52;;;;;;;;;1.00;0.33;;;;;;;;5083384;27;45883;-79
2023/07/21 03:18:17;;;;;;;;;1.00;1.00;;;;;;;;5093918;27;45539;-80
2023/07/21 03:20:43;;;;;;;;;1.00;1.00;;;;;;;;5090285;27;45299;-76
2023/07/21 03:23:11;;;;;;;;;1.00;1.00;;;;;;;;5087868;27;45551;-79
2023/07/21 03:25:40;;;;;;;;;0.00;0.00;;;;;;;;5079507;27;45882;-79
2023/07/21 03:28:06;;;;;;;;;1.00;1.00;;;;;;;;5078548;27;45440;-79
2023/07/21 03:30:31;;;;;;;;;0.00;0.00;;;;;;;;5079021;27;45442;-81
2023/07/21 03:32:57;;;;;;;;;1.67;1.00;;;;;;;;5079533;27;45378;-79
2023/07/21 03:35:23;;;;;;;;;0.00;0.00;;;;;;;;5079171;27;45886;-81
2023/07/21 03:37:49;;;;;;;;;0.67;0.67;;;;;;;;5078973;27;45433;-78
2023/07/21 03:40:15;;;;;;;;;1.00;0.67;;;;;;;;5078756;27;45488;-76
2023/07/21 03:42:40;;;;;;;;;1.00;1.00;;;;;;;;5080476;27;45358;-79
2023/07/21 03:45:06;;;;;;;;;0.00;0.00;;;;;;;;5078645;27;45409;-80
2023/07/21 03:47:33;;;;;;;;;1.00;1.00;;;;;;;;5078415;27;45280;-80
2023/07/21 03:49:58;;;;;;;;;0.33;0.33;;;;;;;;5090056;27;45555;-80
2023/07/21 03:52:24;;;;;;;;;1.33;0.67;;;;;;;;5080967;27;45325;-80
2023/07/21 03:54:50;;;;;;;;;1.00;1.00;;;;;;;;5098515;27;45818;-81
2023/07/21 03:57:16;;;;;;;;;1.00;1.00;;;;;;;;5099147;27;45528;-76
2023/07/21 03:59:42;;;;;;;;;1.00;1.00;;;;;;;;5079294;27;45389;-81
2023/07/21 04:02:08;;;;;;;;;1.00;1.00;;;;;;;;5094264;27;45613;-80
2023/07/21 04:04:34;;;;;;;;;1.00;1.00;;;;;;;;5094411;27;45421;-80
2023/07/21 04:07:05;;;;;;;;;2.33;2.33;;;;;;;;5083749;27;45432;-79
2023/07/21 04:09:31;;;;;;;;;1.00;1.00;;;;;;;;5087798;27;45403;-80
2023/07/21 04:11:56;;;;;;;;;1.00;1.00;;;;;;;;5078741;27;45443;-80
2023/07/21 04:14:22;;;;;;;;;1.00;1.00;;;;;;;;5097130;27;45946;-80
2023/07/21 04:16:47;;;;;;;;;1.00;1.00;;;;;;;;5098873;27;45462;-80
2023/07/21 04:19:13;;;;;;;;;0.00;0.00;;;;;;;;5082201;27;45724;-79
2023/07/21 04:21:38;;;;;;;;;1.00;1.00;;;;;;;;5091519;27;45605;-80
2023/07/21 04:24:04;;;;;;;;;1.00;1.00;;;;;;;;5075868;27;46878;-80
2023/07/21 04:26:29;;;;;;;;;0.00;0.00;;;;;;;;5077294;27;45321;-80
2023/07/21 04:28:55;;;;;;;;;1.00;1.00;;;;;;;;5073512;28;45377;-79
2023/07/21 04:31:22;;;;;;;;;2.00;2.00;;;;;;;;5092062;27;45697;-79
2023/07/21 04:33:50;;;;;;;;;1.00;1.00;;;;;;;;5093296;27;45465;-79
2023/07/21 04:36:16;;;;;;;;;1.00;1.00;;;;;;;;5095593;27;45444;-80
2023/07/21 04:38:41;;;;;;;;;1.00;1.00;;;;;;;;5086030;27;47073;-80
2023/07/21 04:41:06;;;;;;;;;1.00;1.00;;;;;;;;5093126;27;45621;-80
2023/07/21 04:43:32;;;;;;;;;0.67;0.00;;;;;;;;5096641;27;45525;-80
2023/07/21 04:45:57;;;;;;;;;1.00;1.00;;;;;;;;5098157;27;46765;-78
2023/07/21 04:48:23;;;;;;;;;0.00;0.00;;;;;;;;5097988;27;46098;-80
2023/07/21 04:50:51;;;;;;;;;2.00;1.00;;;;;;;;5098587;27;45453;-76
2023/07/21 04:53:17;;;;;;;;;1.00;1.00;;;;;;;;5097194;27;45502;-80
2023/07/21 04:55:42;;;;;;;;;1.00;1.00;;;;;;;;5096647;27;45394;-80
2023/07/21 04:58:10;;;;;;;;;1.00;1.00;;;;;;;;5097167;27;45665;-81
2023/07/21 05:00:36;;;;;;;;;1.67;1.00;;;;;;;;5082689;27;45869;-79
2023/07/21 05:03:01;;;;;;;;;0.67;0.67;;;;;;;;5094664;27;46076;-80
2023/07/21 05:05:27;;;;;;;;;1.00;0.67;;;;;;;;5079327;27;45437;-80
2023/07/21 05:07:53;;;;;;;;;1.00;0.00;;;;;;;;5094931;27;45519;-80
2023/07/21 05:10:18;;;;;;;;;1.00;1.00;;;;;;;;5086829;27;45450;-80
2023/07/21 05:12:44;;;;;;;;;1.00;1.00;;;;;;;;5087813;27;46214;-79
2023/07/21 05:15:10;;;;;;;;;0.33;0.33;;;;;;;;5094458;27;45290;-80
2023/07/21 05:17:35;;;;;;;;;1.00;1.00;;;;;;;;5096868;27;45322;-80
2023/07/21 05:20:03;;;;;;;;;2.33;1.00;;;;;;;;5094826;27;45598;-80
2023/07/21 05:22:29;;;;;;;;;0.00;0.00;;;;;;;;5090506;27;45258;-80
2023/07/21 05:24:54;;;;;;;;;1.00;1.00;;;;;;;;5083998;27;45448;-80
2023/07/21 05:27:22;;;;;;;;;1.33;1.00;;;;;;;;5094590;27;45741;-77
2023/07/21 05:29:47;;;;;;;;;1.00;1.00;;;;;;;;5081396;27;45637;-80
2023/07/21 05:32:15;;;;;;;;;1.67;1.00;;;;;;;;5091823;27;45443;-80
2023/07/21 05:34:41;;;;;;;;;0.00;0.00;;;;;;;;5089750;27;45389;-80
2023/07/21 05:37:07;;;;;;;;;0.67;0.33;;;;;;;;5091521;27;45378;-79
2023/07/21 05:39:32;;;;;;;;;1.00;0.67;;;;;;;;5078704;27;45369;-79
2023/07/21 05:41:58;;;;;;;;;1.00;1.00;;;;;;;;5076841;28;46224;-77
2023/07/21 05:44:24;;;;;;;;;2.00;1.00;;;;;;;;5088736;27;45304;-77
2023/07/21 05:46:49;;;;;;;;;1.00;1.00;;;;;;;;5098334;27;45326;-80
2023/07/21 05:49:16;;;;;;;;;0.00;0.00;;;;;;;;5096149;27;45295;-80
2023/07/21 05:51:42;;;;;;;;;1.00;1.00;;;;;;;;5078858;27;45446;-80
2023/07/21 05:54:08;;;;;;;;;1.00;1.00;;;;;;;;5093176;27;45449;-80
2023/07/21 05:56:33;;;;;;;;;0.67;0.33;;;;;;;;5096977;27;45446;-76
2023/07/21 05:58:59;;;;;;;;;1.00;1.00;;;;;;;;5097869;27;45597;-78
2023/07/21 06:01:25;;;;;;;;;1.00;1.00;;;;;;;;5098000;27;45902;-79
2023/07/21 06:03:50;;;;;;;;;2.00;1.00;;;;;;;;5097085;27;45326;-77
2023/07/21 06:06:16;;;;;;;;;0.00;0.00;;;;;;;;5099381;27;45164;-80
2023/07/21 06:08:41;;;;;;;;;1.00;1.00;;;;;;;;5098190;27;45338;-77
2023/07/21 06:11:07;;;;;;;;;1.00;1.00;;;;;;;;5094271;27;46209;-80
2023/07/21 06:13:33;;;;;;;;;1.00;1.00;;;;;;;;5093025;27;45389;-80
2023/07/21 06:15:58;;;;;;;;;1.00;1.00;;;;;;;;5078182;27;45452;-79
2023/07/21 06:18:23;;;;;;;;;1.00;1.00;;;;;;;;5091334;27;45732;-78
2023/07/21 06:20:55;;;;;;;;;2.00;2.00;;;;;;;;5093857;27;46276;-80
2023/07/21 06:23:20;;;;;;;;;0.00;0.00;;;;;;;;5078475;27;45361;-79
2023/07/21 06:25:45;;;;;;;;;1.00;1.00;;;;;;;;5103737;27;45601;-78
2023/07/21 06:28:13;;;;;;;;;1.00;1.00;;;;;;;;5088689;27;45573;-77
2023/07/21 06:30:39;;;;;;;;;1.00;1.00;;;;;;;;5101101;27;46609;-76
2023/07/21 06:33:05;;;;;;;;;2.00;1.00;;;;;;;;5082607;27;45388;-77
2023/07/21 06:35:31;;;;;;;;;1.00;1.00;;;;;;;;5090825;27;45455;-78
2023/07/21 06:37:56;;;;;;;;;2.67;1.67;;;;;;;;5100032;27;45826;-77
2023/07/21 06:40:22;;;;;;;;;1.00;1.00;;;;;;;;5088988;27;45524;-74
2023/07/21 06:42:48;;;;;;;;;4.00;3.00;;;;;;;;5088386;27;45720;-77
2023/07/21 06:45:14;;;;;;;;;0.67;0.67;;;;;;;;5103407;27;45447;-78
2023/07/21 06:47:39;;;;;;;;;1.00;1.00;;;;;;;;5087812;27;45409;-80
2023/07/21 06:50:05;;;;;;;;;1.00;1.00;;;;;;;;5097033;27;45534;-76
2023/07/21 06:52:40;;;;;;;;;2.00;1.00;;;;;;;;5097391;27;45393;-77
2023/07/21 06:55:06;;;;;;;;;2.00;0.67;;;;;;;;5093233;27;45499;-75
2023/07/21 06:57:31;;;;;;;;;0.00;0.00;;;;;;;;5082674;27;45483;-76
2023/07/21 06:59:56;;;;;;;;;0.00;0.00;;;;;;;;5104889;27;48203;-77
2023/07/21 07:02:22;;;;;;;;;2.00;2.00;;;;;;;;5100152;27;45550;-78
2023/07/21 07:04:51;;;;;;;;;2.00;2.00;;;;;;;;5089225;27;45368;-78
2023/07/21 07:07:17;;;;;;;;;1.67;1.67;;;;;;;;5100604;27;45615;-76
2023/07/21 07:09:42;;;;;;;;;0.00;0.00;;;;;;;;5087642;27;45747;-78
2023/07/21 07:12:08;;;;;;;;;2.00;2.00;;;;;;;;5088262;27;45641;-79
2023/07/21 07:14:33;;;;;;;;;1.67;1.00;;;;;;;;5093516;27;45431;-78
2023/07/21 07:16:59;;;;;;;;;1.00;1.00;;;;;;;;5100004;27;45342;-77
2023/07/21 07:19:24;;;;;;;;;1.00;1.00;;;;;;;;5100953;27;46666;-79
2023/07/21 07:21:50;;;;;;;;;2.67;0.33;;;;;;;;5095845;27;45307;-83
2023/07/21 07:24:15;;;;;;;;;0.00;0.00;;;;;;;;5091486;27;46954;-81
2023/07/21 07:26:40;;;;;;;;;1.33;1.00;;;;;;;;5101028;27;45599;-79
2023/07/21 07:29:06;;;;;;;;;2.00;1.00;;;;;;;;5088603;27;46229;-80
2023/07/21 07:31:31;;;;;;;;;0.33;0.33;;;;;;;;5085225;27;45530;-80
2023/07/21 07:33:57;;;;;;;;;1.00;1.00;;;;;;;;5100475;27;45483;-80
2023/07/21 07:36:22;;;;;;;;;1.33;1.00;;;;;;;;5082702;27;45361;-84
2023/07/21 07:38:47;;;;;;;;;4.00;2.00;;;;;;;;5077414;27;45874;-87
2023/07/21 07:41:13;;;;;;;;;0.00;0.00;;;;;;;;5103144;27;45496;-85
2023/07/21 07:43:38;;;;;;;;;3.00;3.00;;;;;;;;5087697;27;45501;-84
2023/07/21 07:46:07;;;;;;;;;1.33;1.00;;;;;;;;5100315;27;45548;-85
2023/07/21 07:48:33;;;;;;;;;3.00;2.00;;;;;;;;5101060;27;45661;-82
2023/07/21 07:51:02;;;;;;;;;2.00;1.00;;;;;;;;5102964;27;45488;-87
2023/07/21 07:53:28;;;;;;;;;2.00;2.00;;;;;;;;5099623;27;45542;-82
2023/07/21 07:55:53;;;;;;;;;2.00;1.00;;;;;;;;5104548;27;45612;-84
2023/07/21 07:58:19;;;;;;;;;2.33;2.33;;;;;;;;5101366;27;46067;-82
2023/07/21 08:00:45;;;;;;;;;3.00;1.33;;;;;;;;5094100;27;45426;-82
2023/07/21 08:03:11;;;;;;;;;2.00;1.00;;;;;;;;5104121;27;45622;-78
2023/07/21 08:05:38;;;;;;;;;1.67;1.00;;;;;;;;5105793;27;45564;-79
2023/07/21 08:08:04;;;;;;;;;2.00;2.00;;;;;;;;5102932;27;45578;-75
2023/07/21 08:10:30;;;;;;;;;2.67;2.00;;;;;;;;5103286;27;45430;-79
2023/07/21 08:12:56;;;;;;;;;2.00;2.00;;;;;;;;5104312;27;45391;-81
2023/07/21 08:15:22;;;;;;;;;1.33;0.33;;;;;;;;5104214;27;45394;-82
2023/07/21 08:21:22;;;;;;;;;0.00;0.00;;;;;;;;5108679;27;45391;-82
2023/07/21 08:29:54;;;;;;;;;3.00;3.00;;;;;;;;5099781;27;45362;-81
2023/07/21 08:41:27;;;;;;;;;2.00;1.00;;;;;;;;5099661;27;45389;-81
2023/07/21 08:43:54;;;;;;;;;2.33;2.00;;;;;;;;5094400;27;45690;-81
2023/07/21 08:46:20;;;;;;;;;3.00;2.33;;;;;;;;5077602;27;45500;-82
2023/07/21 08:48:46;;;;;;;;;1.00;1.00;;;;;;;;5091210;27;45453;-81
2023/07/21 08:51:11;;;;;;;;;1.33;1.00;;;;;;;;5094240;27;45355;-80
2023/07/21 08:53:37;;;;;;;;;1.00;1.00;;;;;;;;5077854;27;45419;-82
2023/07/21 08:56:39;;;;;;;;;2.00;2.00;;;;;;;;5078651;27;45589;-81
2023/07/21 09:02:07;;;;;;;;;2.67;2.00;;;;;;;;5083310;28;45230;-80
2023/07/21 09:04:33;;;;;;;;;1.00;1.00;;;;;;;;5088254;27;45180;-82
2023/07/21 09:06:59;;;;;;;;;2.00;2.00;;;;;;;;5091398;27;45551;-81
2023/07/21 09:09:25;;;;;;;;;4.00;4.00;;;;;;;;5082485;27;45481;-81
2023/07/21 09:12:11;;;;;;;;;1.33;1.00;;;;;;;;5078463;27;45445;-82
2023/07/21 09:14:41;;;;;;;;;2.00;2.00;;;;;;;;5077743;27;45377;-81
2023/07/21 09:17:08;;;;;;;;;2.33;2.33;;;;;;;;5090117;27;45325;-81
2023/07/21 09:19:37;;;;;;;;;2.00;2.00;;;;;;;;5081042;27;45584;-82
2023/07/21 09:22:02;;;;;;;;;2.00;2.00;;;;;;;;5078742;27;46209;-81
2023/07/21 09:24:28;;;;;;;;;2.00;2.00;;;;;;;;5078096;27;45492;-82
2023/07/21 09:27:10;;;;;;;;;3.67;3.00;;;;;;;;5076815;27;45365;-82
2023/07/21 09:29:35;;;;;;;;;2.00;2.00;;;;;;;;5078753;27;45429;-82
2023/07/21 09:32:01;;;;;;;;;3.00;3.00;;;;;;;;5093779;27;45458;-82
2023/07/21 09:34:26;;;;;;;;;3.00;3.00;;;;;;;;5078005;27;45297;-81
2023/07/21 09:36:51;;;;;;;;;1.00;1.00;;;;;;;;5078310;27;45808;-82
2023/07/21 09:39:17;;;;;;;;;2.00;2.00;;;;;;;;5091838;27;45482;-82
2023/07/21 09:41:44;;;;;;;;;3.00;2.00;;;;;;;;5081012;27;45605;-82
2023/07/21 09:44:10;;;;;;;;;3.00;3.00;;;;;;;;5078410;27;45424;-81
2023/07/21 09:46:52;;;;;;;;;3.33;2.67;;;;;;;;5086503;27;45486;-82
2023/07/21 09:49:17;;;;;;;;;4.00;3.00;;;;;;;;5079852;27;45449;-82
2023/07/21 09:51:45;;;;;;;;;3.00;3.00;;;;;;;;5078272;27;45998;-82
2023/07/21 09:54:15;;;;;;;;;2.33;2.33;;;;;;;;5078900;28;45432;-81
2023/07/21 09:56:43;;;;;;;;;2.00;2.00;;;;;;;;5078515;27;45361;-83
2023/07/21 09:59:09;;;;;;;;;4.00;3.00;;;;;;;;5079618;27;45409;-82
2023/07/21 10:01:35;;;;;;;;;3.00;1.67;;;;;;;;5092991;27;45636;-81
2023/07/21 10:04:02;;;;;;;;;3.33;3.00;;;;;;;;5082861;27;45256;-79
2023/07/21 10:06:32;;;;;;;;;3.00;3.00;;;;;;;;5079597;27;45365;-81
2023/07/21 10:08:58;;;;;;;;;3.00;2.00;;;;;;;;5077591;27;45541;-78
2023/07/21 10:11:23;;;;;;;;;3.33;3.33;;;;;;;;5092357;27;45580;-81
2023/07/21 10:13:49;;;;;;;;;2.00;0.67;;;;;;;;5078266;27;45334;-81
2023/07/21 10:16:14;;;;;;;;;2.00;1.33;;;;;;;;5077515;27;45517;-81
2023/07/21 10:18:59;;;;;;;;;3.33;3.00;;;;;;;;5087132;27;45234;-81
2023/07/21 10:24:28;;;;;;;;;2.00;2.00;;;;;;;;5077295;27;45463;-82
2023/07/21 10:26:55;;;;;;;;;2.00;1.67;;;;;;;;5078078;27;45262;-81
2023/07/21 10:29:20;;;;;;;;;2.33;2.00;;;;;;;;5077722;27;45333;-81
2023/07/21 10:31:55;;;;;;;;;2.00;2.00;;;;;;;;5079139;27;46096;-80
2023/07/21 10:34:44;;;;;;;;;2.00;2.00;;;;;;;;5076302;28;45475;-81
2023/07/21 10:37:10;;;;;;;;;2.00;2.00;;;;;;;;5074742;27;45264;-82
2023/07/21 10:39:37;;;;;;;;;2.00;2.00;;;;;;;;5077371;28;45349;-82
2023/07/21 10:42:04;;;;;;;;;1.00;1.00;;;;;;;;5079099;27;45442;-82
2023/07/21 10:44:40;;;;;;;;;3.33;3.00;;;;;;;;5080349;27;45507;-82
2023/07/21 10:47:10;;;;;;;;;2.00;2.00;;;;;;;;5077316;27;45488;-81
2023/07/21 10:49:36;;;;;;;;;4.00;4.00;;;;;;;;5077200;27;45541;-80
2023/07/21 10:52:02;;;;;;;;;3.00;2.00;;;;;;;;5081930;27;45942;-80
2023/07/21 10:54:27;;;;;;;;;3.00;3.00;;;;;;;;5091185;27;45587;-81
2023/07/21 10:56:52;;;;;;;;;3.00;2.33;;;;;;;;5077842;27;45841;-80
2023/07/21 10:59:18;;;;;;;;;2.00;1.33;;;;;;;;5080665;27;45501;-78
2023/07/21 11:01:45;;;;;;;;;3.00;2.00;;;;;;;;5096871;27;45459;-82
2023/07/21 11:04:11;;;;;;;;;2.00;2.00;;;;;;;;5095692;27;45412;-80
2023/07/21 11:06:40;;;;;;;;;5.00;5.00;;;;;;;;5096698;27;45419;-79
2023/07/21 11:09:05;;;;;;;;;35.00;32.00;;;;;;;;5080115;27;45642;-82
2023/07/21 11:11:31;;;;;;;;;8.00;8.00;;;;;;;;5092123;27;46185;-81
2023/07/21 11:13:56;;;;;;;;;3.00;3.00;;;;;;;;5084874;27;45472;-83
2023/07/21 11:16:21;;;;;;;;;4.33;4.00;;;;;;;;5095955;27;45452;-82
2023/07/21 11:18:47;;;;;;;;;3.33;3.33;;;;;;;;5097324;27;45459;-83
2023/07/21 11:21:12;;;;;;;;;3.00;2.00;;;;;;;;5081020;27;45415;-82
2023/07/21 11:23:37;;;;;;;;;2.67;2.67;;;;;;;;5075339;27;45416;-82
2023/07/21 11:26:03;;;;;;;;;2.33;2.00;;;;;;;;5090440;27;45321;-82
2023/07/21 11:28:29;;;;;;;;;1.67;1.67;;;;;;;;5085991;27;45335;-83
2023/07/21 11:30:54;;;;;;;;;2.67;2.33;;;;;;;;5095272;27;47002;-83
2023/07/21 11:33:20;;;;;;;;;3.00;3.00;;;;;;;;5077604;27;45355;-80
2023/07/21 11:35:46;;;;;;;;;1.67;1.67;;;;;;;;5082345;27;45369;-83
2023/07/21 11:38:11;;;;;;;;;3.00;2.00;;;;;;;;5086081;27;45628;-83
2023/07/21 11:40:37;;;;;;;;;2.33;2.00;;;;;;;;5080757;27;47506;-83
2023/07/21 11:43:06;;;;;;;;;2.00;2.00;;;;;;;;5093301;27;45467;-83
2023/07/21 11:45:36;;;;;;;;;2.67;2.00;;;;;;;;5082783;27;45529;-81
2023/07/21 11:48:14;;;;;;;;;2.33;2.00;;;;;;;;5081706;27;45230;-82
2023/07/21 11:50:54;;;;;;;;;2.00;2.00;;;;;;;;5080464;27;47133;-82
2023/07/21 11:53:20;;;;;;;;;2.00;2.00;;;;;;;;5087990;27;45575;-80
2023/07/21 11:55:46;;;;;;;;;3.00;2.67;;;;;;;;5089302;27;45432;-83
2023/07/21 11:58:14;;;;;;;;;2.00;2.00;;;;;;;;5094775;27;45524;-82
2023/07/21 12:00:41;;;;;;;;;3.00;2.00;;;;;;;;5079883;27;45326;-83
2023/07/21 12:03:08;;;;;;;;;1.00;1.00;;;;;;;;5080289;27;45324;-80
2023/07/21 12:05:33;;;;;;;;;1.67;1.67;;;;;;;;5082188;27;45573;-79
2023/07/21 12:08:03;;;;;;;;;4.00;4.00;;;;;;;;5087338;27;45486;-80
2023/07/21 12:10:28;;;;;;;;;2.00;2.00;;;;;;;;5099875;27;45358;-82
2023/07/21 12:12:54;;;;;;;;;2.00;1.00;;;;;;;;5079026;27;45381;-83
2023/07/21 12:15:19;;;;;;;;;1.33;1.33;;;;;;;;5089311;27;45593;-83
2023/07/21 12:17:47;;;;;;;;;1.33;1.00;;;;;;;;5084698;27;45567;-82
2023/07/21 12:20:13;;;;;;;;;2.00;2.00;;;;;;;;5094954;27;45647;-80
2023/07/21 12:22:39;;;;;;;;;1.33;1.33;;;;;;;;5079443;27;45350;-82
2023/07/21 12:25:05;;;;;;;;;1.00;1.00;;;;;;;;5078134;27;45448;-81
2023/07/21 12:27:31;;;;;;;;;2.33;1.00;;;;;;;;5079496;27;45602;-80
2023/07/21 12:29:56;;;;;;;;;1.00;1.00;;;;;;;;5081654;27;45739;-81
2023/07/21 12:32:22;;;;;;;;;1.00;1.00;;;;;;;;5093042;27;45282;-83
2023/07/21 12:34:47;;;;;;;;;1.00;1.00;;;;;;;;5080229;27;45313;-83
2023/07/21 12:37:13;;;;;;;;;3.00;3.00;;;;;;;;5084205;27;45704;-83
2023/07/21 12:39:38;;;;;;;;;1.00;1.00;;;;;;;;5098583;27;45623;-81
2023/07/21 12:42:04;;;;;;;;;4.00;3.00;;;;;;;;5085571;27;45468;-83
2023/07/21 12:44:30;;;;;;;;;2.33;2.00;;;;;;;;5094570;27;45430;-83
2023/07/21 12:46:55;;;;;;;;;2.00;2.00;;;;;;;;5084099;27;45454;-79
2023/07/21 12:49:20;;;;;;;;;1.00;1.00;;;;;;;;5088540;27;45536;-82
2023/07/21 12:51:46;;;;;;;;;1.00;1.00;;;;;;;;5091977;27;45661;-83
2023/07/21 12:54:11;;;;;;;;;1.00;1.00;;;;;;;;5082237;27;46063;-81
2023/07/21 12:56:37;;;;;;;;;1.00;1.00;;;;;;;;5085570;27;45435;-84
2023/07/21 12:59:02;;;;;;;;;1.33;1.00;;;;;;;;5093621;27;47283;-82
2023/07/21 13:01:28;;;;;;;;;2.00;1.00;;;;;;;;5078903;27;45325;-83
2023/07/21 13:03:53;;;;;;;;;2.00;2.00;;;;;;;;5093380;27;45605;-82
2023/07/21 13:06:19;;;;;;;;;1.00;1.00;;;;;;;;5094626;27;45361;-82
2023/07/21 13:08:44;;;;;;;;;1.00;1.00;;;;;;;;5078318;27;46183;-83
2023/07/21 13:11:10;;;;;;;;;4.00;4.00;;;;;;;;5078945;27;45486;-80
2023/07/21 13:14:12;;;;;;;;;1.00;1.00;;;;;;;;5079247;27;45847;-83
2023/07/21 13:16:38;;;;;;;;;3.33;3.00;;;;;;;;5078722;27;45409;-82
2023/07/21 13:19:05;;;;;;;;;2.00;2.00;;;;;;;;5093916;27;46090;-81
2023/07/21 13:21:30;;;;;;;;;2.00;2.00;;;;;;;;5085139;27;45564;-82
2023/07/21 13:23:56;;;;;;;;;2.00;1.00;;;;;;;;5086685;27;45310;-83
2023/07/21 13:26:21;;;;;;;;;1.00;1.00;;;;;;;;5093634;27;45463;-82
2023/07/21 13:28:47;;;;;;;;;2.00;2.00;;;;;;;;5078202;27;45238;-82
2023/07/21 13:31:12;;;;;;;;;2.00;2.00;;;;;;;;5079030;27;45353;-83
2023/07/21 13:33:38;;;;;;;;;1.00;1.00;;;;;;;;5078812;27;45566;-83
2023/07/21 13:36:03;;;;;;;;;1.33;1.33;;;;;;;;5078389;27;45369;-82
2023/07/21 13:38:30;;;;;;;;;1.33;1.33;;;;;;;;5077647;27;48076;-80
2023/07/21 13:40:58;;;;;;;;;3.67;3.00;;;;;;;;5091647;27;45451;-83
2023/07/21 13:43:24;;;;;;;;;2.00;2.00;;;;;;;;5092487;27;45543;-82
2023/07/21 13:45:49;;;;;;;;;2.33;2.00;;;;;;;;5076024;27;45591;-83
2023/07/21 13:48:15;;;;;;;;;1.00;1.00;;;;;;;;5075957;27;45506;-81
2023/07/21 13:50:41;;;;;;;;;1.00;1.00;;;;;;;;5078079;27;45519;-84
2023/07/21 13:53:06;;;;;;;;;2.00;2.00;;;;;;;;5080361;27;45411;-84
2023/07/21 13:55:31;;;;;;;;;1.00;1.00;;;;;;;;5097972;27;45299;-83
2023/07/21 13:57:57;;;;;;;;;0.67;0.67;;;;;;;;5097431;27;46069;-83
2023/07/21 14:00:22;;;;;;;;;2.33;1.67;;;;;;;;5096891;27;45414;-84
2023/07/21 14:02:48;;;;;;;;;1.00;1.00;;;;;;;;5088154;27;45375;-81
2023/07/21 14:05:15;;;;;;;;;2.00;2.00;;;;;;;;5096928;27;45404;-81
2023/07/21 14:07:41;;;;;;;;;3.00;2.00;;;;;;;;5092085;27;46390;-82
2023/07/21 14:10:06;;;;;;;;;0.33;0.00;;;;;;;;5096312;27;45409;-82
2023/07/21 14:12:32;;;;;;;;;2.00;1.33;;;;;;;;5090259;27;45360;-82
2023/07/21 14:14:57;;;;;;;;;1.00;1.00;;;;;;;;5087135;27;45547;-83
2023/07/21 14:17:23;;;;;;;;;0.67;0.67;;;;;;;;5082100;27;45516;-83
2023/07/21 14:19:49;;;;;;;;;8.00;7.33;;;;;;;;5091906;27;45618;-83
2023/07/21 14:22:48;;;;;;;;;3.33;3.33;;;;;;;;5083632;27;45499;-82
2023/07/21 14:25:14;;;;;;;;;2.00;2.00;;;;;;;;5087502;27;45358;-81
2023/07/21 14:30:42;;;;;;;;;1.33;1.33;;;;;;;;5083658;27;45552;-80
2023/07/21 14:33:08;;;;;;;;;2.00;1.00;;;;;;;;5097936;27;45502;-80
2023/07/21 14:35:33;;;;;;;;;7.33;6.67;;;;;;;;5096553;27;45701;-80
2023/07/21 14:38:00;;;;;;;;;11.00;10.00;;;;;;;;5097457;27;46324;-80
2023/07/21 14:40:25;;;;;;;;;2.33;2.00;;;;;;;;5096769;27;45639;-80
2023/07/21 14:42:51;;;;;;;;;0.67;0.33;;;;;;;;5099929;27;45253;-80
2023/07/21 14:45:17;;;;;;;;;1.00;1.00;;;;;;;;5095998;27;45661;-78
2023/07/21 14:47:43;;;;;;;;;1.00;1.00;;;;;;;;5081204;27;45548;-80
2023/07/21 14:50:09;;;;;;;;;2.00;1.00;;;;;;;;5085598;27;45446;-79
2023/07/21 14:52:34;;;;;;;;;2.00;1.67;;;;;;;;5077758;27;45539;-83
2023/07/21 14:55:00;;;;;;;;;4.00;3.00;;;;;;;;5077904;27;45399;-80
2023/07/21 14:57:26;;;;;;;;;2.00;1.00;;;;;;;;5076339;27;46846;-80
2023/07/21 14:59:51;;;;;;;;;2.33;2.00;;;;;;;;5077715;27;45354;-80
2023/07/21 15:02:17;;;;;;;;;1.00;1.00;;;;;;;;5077593;27;45298;-79
2023/07/21 15:04:42;;;;;;;;;1.67;1.67;;;;;;;;5081384;27;45215;-83
2023/07/21 15:07:15;;;;;;;;;2.00;2.00;;;;;;;;5091371;27;45465;-77